sensor_id;sensor_type;location;lat;lon;timestamp;temperature;humidity
38684;DHT22;24910;53.248;-6.134;2023-04-15T00:01:19;10.00;71.60
38684;DHT22;24910;53.248;-6.134;2023-04-15T00:03:50;10.00;71.60
38684;DHT22;24910;53.248;-6.134;2023-04-15T00:06:20;10.00;71.70
38684;DHT22;24910;53.248;-6.134;2023-04-15T00:08:49;9.90;71.70
38684;DHT22;24910;53.248;-6.134;2023-04-15T00:11:18;10.00;71.60
38684;DHT22;24910;53.248;-6.134;2023-04-15T00:13:47;9.90;71.60
38684;DHT22;24910;53.248;-6.134;2023-04-15T00:16:17;9.90;71.80
38684;DHT22;24910;53.248;-6.134;2023-04-15T00:18:47;9.90;71.90
38684;DHT22;24910;53.248;-6.134;2023-04-15T00:21:16;9.90;72.00
38684;DHT22;24910;53.248;-6.134;2023-04-15T00:23:45;9.90;72.10
38684;DHT22;24910;53.248;-6.134;2023-04-15T00:26:19;9.90;72.30
38684;DHT22;24910;53.248;-6.134;2023-04-15T00:28:49;9.90;72.50
38684;DHT22;24910;53.248;-6.134;2023-04-15T00:31:20;9.90;72.50
38684;DHT22;24910;53.248;-6.134;2023-04-15T00:33:50;9.90;72.50
38684;DHT22;24910;53.248;-6.134;2023-04-15T00:36:19;9.90;72.60
38684;DHT22;24910;53.248;-6.134;2023-04-15T00:38:50;9.90;72.60
38684;DHT22;24910;53.248;-6.134;2023-04-15T00:41:20;9.90;72.70
38684;DHT22;24910;53.248;-6.134;2023-04-15T00:43:49;9.90;72.80
38684;DHT22;24910;53.248;-6.134;2023-04-15T00:46:20;9.90;72.90
38684;DHT22;24910;53.248;-6.134;2023-04-15T00:48:50;9.90;73.10
38684;DHT22;24910;53.248;-6.134;2023-04-15T00:51:19;9.90;73.20
38684;DHT22;24910;53.248;-6.134;2023-04-15T00:53:48;9.80;73.30
38684;DHT22;24910;53.248;-6.134;2023-04-15T00:56:19;9.80;73.50
38684;DHT22;24910;53.248;-6.134;2023-04-15T00:58:51;9.80;73.60
38684;DHT22;24910;53.248;-6.134;2023-04-15T01:01:22;9.80;73.80
38684;DHT22;24910;53.248;-6.134;2023-04-15T01:03:53;9.80;73.90
38684;DHT22;24910;53.248;-6.134;2023-04-15T01:06:23;9.80;74.00
38684;DHT22;24910;53.248;-6.134;2023-04-15T01:08:54;9.80;74.10
38684;DHT22;24910;53.248;-6.134;2023-04-15T01:11:24;9.80;74.10
38684;DHT22;24910;53.248;-6.134;2023-04-15T01:13:55;9.80;74.10
38684;DHT22;24910;53.248;-6.134;2023-04-15T01:16:26;9.80;74.20
38684;DHT22;24910;53.248;-6.134;2023-04-15T01:18:56;9.80;74.30
38684;DHT22;24910;53.248;-6.134;2023-04-15T01:21:25;9.80;74.40
38684;DHT22;24910;53.248;-6.134;2023-04-15T01:23:55;9.70;74.50
38684;DHT22;24910;53.248;-6.134;2023-04-15T01:26:26;9.70;74.60
38684;DHT22;24910;53.248;-6.134;2023-04-15T01:28:55;9.70;74.70
38684;DHT22;24910;53.248;-6.134;2023-04-15T01:31:25;9.70;74.70
38684;DHT22;24910;53.248;-6.134;2023-04-15T01:33:54;9.70;74.70
38684;DHT22;24910;53.248;-6.134;2023-04-15T01:36:41;9.70;74.60
38684;DHT22;24910;53.248;-6.134;2023-04-15T01:39:10;9.80;74.60
38684;DHT22;24910;53.248;-6.134;2023-04-15T01:41:41;9.80;74.60
38684;DHT22;24910;53.248;-6.134;2023-04-15T01:44:12;9.70;74.60
38684;DHT22;24910;53.248;-6.134;2023-04-15T01:46:42;9.70;74.60
38684;DHT22;24910;53.248;-6.134;2023-04-15T01:49:12;9.70;74.60
38684;DHT22;24910;53.248;-6.134;2023-04-15T01:51:42;9.70;74.70
38684;DHT22;24910;53.248;-6.134;2023-04-15T01:54:14;9.60;74.80
38684;DHT22;24910;53.248;-6.134;2023-04-15T01:56:47;9.60;74.80
38684;DHT22;24910;53.248;-6.134;2023-04-15T01:59:17;9.60;74.90
38684;DHT22;24910;53.248;-6.134;2023-04-15T02:01:48;9.60;75.00
38684;DHT22;24910;53.248;-6.134;2023-04-15T02:04:18;9.60;75.20
38684;DHT22;24910;53.248;-6.134;2023-04-15T02:06:49;9.50;75.30
38684;DHT22;24910;53.248;-6.134;2023-04-15T02:09:19;9.50;75.30
38684;DHT22;24910;53.248;-6.134;2023-04-15T02:11:51;9.50;75.30
38684;DHT22;24910;53.248;-6.134;2023-04-15T02:14:22;9.50;75.40
38684;DHT22;24910;53.248;-6.134;2023-04-15T02:16:52;9.50;75.50
38684;DHT22;24910;53.248;-6.134;2023-04-15T02:19:22;9.50;75.60
38684;DHT22;24910;53.248;-6.134;2023-04-15T02:21:53;9.50;75.70
38684;DHT22;24910;53.248;-6.134;2023-04-15T02:24:23;9.50;76.60
38684;DHT22;24910;53.248;-6.134;2023-04-15T02:26:55;9.40;75.80
38684;DHT22;24910;53.248;-6.134;2023-04-15T02:29:25;9.40;75.80
38684;DHT22;24910;53.248;-6.134;2023-04-15T02:31:55;9.40;76.00
38684;DHT22;24910;53.248;-6.134;2023-04-15T02:34:28;9.40;76.10
38684;DHT22;24910;53.248;-6.134;2023-04-15T02:36:59;9.40;76.10
38684;DHT22;24910;53.248;-6.134;2023-04-15T02:39:31;9.40;76.10
38684;DHT22;24910;53.248;-6.134;2023-04-15T02:42:03;9.40;76.20
38684;DHT22;24910;53.248;-6.134;2023-04-15T02:44:34;9.40;76.40
38684;DHT22;24910;53.248;-6.134;2023-04-15T02:47:05;9.30;76.40
38684;DHT22;24910;53.248;-6.134;2023-04-15T02:49:37;9.40;76.40
38684;DHT22;24910;53.248;-6.134;2023-04-15T02:52:08;9.30;76.40
38684;DHT22;24910;53.248;-6.134;2023-04-15T02:54:38;9.40;76.50
38684;DHT22;24910;53.248;-6.134;2023-04-15T02:57:10;9.30;77.40
38684;DHT22;24910;53.248;-6.134;2023-04-15T02:59:40;9.30;76.70
38684;DHT22;24910;53.248;-6.134;2023-04-15T03:02:11;9.30;76.60
38684;DHT22;24910;53.248;-6.134;2023-04-15T03:04:41;9.30;76.70
38684;DHT22;24910;53.248;-6.134;2023-04-15T03:07:11;9.30;76.70
38684;DHT22;24910;53.248;-6.134;2023-04-15T03:09:42;9.30;76.80
38684;DHT22;24910;53.248;-6.134;2023-04-15T03:12:14;9.30;76.80
38684;DHT22;24910;53.248;-6.134;2023-04-15T03:14:46;9.30;76.90
38684;DHT22;24910;53.248;-6.134;2023-04-15T03:17:16;9.30;76.90
38684;DHT22;24910;53.248;-6.134;2023-04-15T03:19:46;9.30;77.00
38684;DHT22;24910;53.248;-6.134;2023-04-15T03:22:17;9.20;76.90
38684;DHT22;24910;53.248;-6.134;2023-04-15T03:24:48;9.20;77.00
38684;DHT22;24910;53.248;-6.134;2023-04-15T03:27:20;9.20;77.00
38684;DHT22;24910;53.248;-6.134;2023-04-15T03:29:50;9.20;77.10
38684;DHT22;24910;53.248;-6.134;2023-04-15T03:32:23;9.20;77.10
38684;DHT22;24910;53.248;-6.134;2023-04-15T03:34:53;9.20;77.20
38684;DHT22;24910;53.248;-6.134;2023-04-15T03:37:24;9.20;77.20
38684;DHT22;24910;53.248;-6.134;2023-04-15T03:39:54;9.20;77.40
38684;DHT22;24910;53.248;-6.134;2023-04-15T03:42:26;9.20;77.40
38684;DHT22;24910;53.248;-6.134;2023-04-15T03:44:56;9.20;77.50
38684;DHT22;24910;53.248;-6.134;2023-04-15T03:47:26;9.20;77.60
38684;DHT22;24910;53.248;-6.134;2023-04-15T03:49:56;9.20;77.50
38684;DHT22;24910;53.248;-6.134;2023-04-15T03:52:27;9.20;77.60
38684;DHT22;24910;53.248;-6.134;2023-04-15T03:54:57;9.20;77.70
38684;DHT22;24910;53.248;-6.134;2023-04-15T03:57:29;9.20;77.80
38684;DHT22;24910;53.248;-6.134;2023-04-15T03:59:59;9.10;77.70
38684;DHT22;24910;53.248;-6.134;2023-04-15T04:02:39;9.20;77.90
38684;DHT22;24910;53.248;-6.134;2023-04-15T04:05:10;9.10;77.90
38684;DHT22;24910;53.248;-6.134;2023-04-15T04:07:40;9.10;78.00
38684;DHT22;24910;53.248;-6.134;2023-04-15T04:10:10;9.10;78.10
38684;DHT22;24910;53.248;-6.134;2023-04-15T04:12:42;9.10;78.30
38684;DHT22;24910;53.248;-6.134;2023-04-15T04:15:12;9.10;78.30
38684;DHT22;24910;53.248;-6.134;2023-04-15T04:17:43;9.10;78.30
38684;DHT22;24910;53.248;-6.134;2023-04-15T04:20:13;9.00;78.40
38684;DHT22;24910;53.248;-6.134;2023-04-15T04:22:43;9.10;78.50
38684;DHT22;24910;53.248;-6.134;2023-04-15T04:25:14;9.10;78.50
38684;DHT22;24910;53.248;-6.134;2023-04-15T04:27:45;9.10;78.50
38684;DHT22;24910;53.248;-6.134;2023-04-15T04:30:16;9.00;78.60
38684;DHT22;24910;53.248;-6.134;2023-04-15T04:32:46;9.00;78.70
38684;DHT22;24910;53.248;-6.134;2023-04-15T04:35:17;9.00;78.70
38684;DHT22;24910;53.248;-6.134;2023-04-15T04:37:47;9.00;78.80
38684;DHT22;24910;53.248;-6.134;2023-04-15T04:40:18;9.00;78.90
38684;DHT22;24910;53.248;-6.134;2023-04-15T04:42:50;9.00;78.90
38684;DHT22;24910;53.248;-6.134;2023-04-15T04:45:20;9.00;79.00
38684;DHT22;24910;53.248;-6.134;2023-04-15T04:47:50;9.00;78.90
38684;DHT22;24910;53.248;-6.134;2023-04-15T04:50:20;9.00;78.90
38684;DHT22;24910;53.248;-6.134;2023-04-15T04:52:51;9.00;79.00
38684;DHT22;24910;53.248;-6.134;2023-04-15T04:55:21;8.90;78.90
38684;DHT22;24910;53.248;-6.134;2023-04-15T04:57:53;8.90;79.00
38684;DHT22;24910;53.248;-6.134;2023-04-15T05:00:23;9.00;79.00
38684;DHT22;24910;53.248;-6.134;2023-04-15T05:02:54;8.90;78.90
38684;DHT22;24910;53.248;-6.134;2023-04-15T05:05:24;8.90;79.00
38684;DHT22;24910;53.248;-6.134;2023-04-15T05:07:54;8.90;79.10
38684;DHT22;24910;53.248;-6.134;2023-04-15T05:10:25;8.90;79.20
38684;DHT22;24910;53.248;-6.134;2023-04-15T05:12:56;8.90;79.30
38684;DHT22;24910;53.248;-6.134;2023-04-15T05:15:27;8.90;79.40
38684;DHT22;24910;53.248;-6.134;2023-04-15T05:17:57;8.80;79.50
38684;DHT22;24910;53.248;-6.134;2023-04-15T05:20:28;8.80;79.60
38684;DHT22;24910;53.248;-6.134;2023-04-15T05:22:58;8.80;79.60
38684;DHT22;24910;53.248;-6.134;2023-04-15T05:25:29;8.80;79.60
38684;DHT22;24910;53.248;-6.134;2023-04-15T05:28:01;8.80;79.60
38684;DHT22;24910;53.248;-6.134;2023-04-15T05:30:31;8.80;79.60
38684;DHT22;24910;53.248;-6.134;2023-04-15T05:33:01;8.80;79.60
38684;DHT22;24910;53.248;-6.134;2023-04-15T05:35:32;8.80;79.80
38684;DHT22;24910;53.248;-6.134;2023-04-15T05:38:02;8.80;79.80
38684;DHT22;24910;53.248;-6.134;2023-04-15T05:40:32;8.80;79.80
38684;DHT22;24910;53.248;-6.134;2023-04-15T05:43:04;8.80;80.00
38684;DHT22;24910;53.248;-6.134;2023-04-15T05:45:35;8.80;80.10
38684;DHT22;24910;53.248;-6.134;2023-04-15T05:48:05;8.90;80.10
38684;DHT22;24910;53.248;-6.134;2023-04-15T05:50:36;8.90;80.10
38684;DHT22;24910;53.248;-6.134;2023-04-15T05:53:07;8.90;80.10
38684;DHT22;24910;53.248;-6.134;2023-04-15T05:55:37;9.00;80.30
38684;DHT22;24910;53.248;-6.134;2023-04-15T05:58:08;9.00;80.20
38684;DHT22;24910;53.248;-6.134;2023-04-15T06:00:39;9.10;80.30
38684;DHT22;24910;53.248;-6.134;2023-04-15T06:03:09;9.10;80.30
38684;DHT22;24910;53.248;-6.134;2023-04-15T06:05:40;9.20;80.40
38684;DHT22;24910;53.248;-6.134;2023-04-15T06:08:12;9.30;80.30
38684;DHT22;24910;53.248;-6.134;2023-04-15T06:10:43;9.30;80.30
38684;DHT22;24910;53.248;-6.134;2023-04-15T06:13:15;9.40;80.10
38684;DHT22;24910;53.248;-6.134;2023-04-15T06:15:46;9.50;80.00
38684;DHT22;24910;53.248;-6.134;2023-04-15T06:18:16;9.70;79.80
38684;DHT22;24910;53.248;-6.134;2023-04-15T06:20:47;9.80;79.70
38684;DHT22;24910;53.248;-6.134;2023-04-15T06:23:17;9.90;79.50
38684;DHT22;24910;53.248;-6.134;2023-04-15T06:25:48;10.00;79.20
38684;DHT22;24910;53.248;-6.134;2023-04-15T06:28:20;10.10;79.10
38684;DHT22;24910;53.248;-6.134;2023-04-15T06:30:50;10.20;78.80
38684;DHT22;24910;53.248;-6.134;2023-04-15T06:33:21;10.40;79.50
38684;DHT22;24910;53.248;-6.134;2023-04-15T06:35:52;10.50;78.40
38684;DHT22;24910;53.248;-6.134;2023-04-15T06:38:22;10.70;78.20
38684;DHT22;24910;53.248;-6.134;2023-04-15T06:40:53;10.70;77.90
38684;DHT22;24910;53.248;-6.134;2023-04-15T06:43:25;10.80;77.90
38684;DHT22;24910;53.248;-6.134;2023-04-15T06:45:55;10.90;77.70
38684;DHT22;24910;53.248;-6.134;2023-04-15T06:48:26;11.00;77.50
38684;DHT22;24910;53.248;-6.134;2023-04-15T06:50:56;11.10;77.20
38684;DHT22;24910;53.248;-6.134;2023-04-15T06:53:27;11.20;76.90
38684;DHT22;24910;53.248;-6.134;2023-04-15T06:55:57;11.30;76.80
38684;DHT22;24910;53.248;-6.134;2023-04-15T06:58:29;11.50;76.70
38684;DHT22;24910;53.248;-6.134;2023-04-15T07:00:59;11.60;76.40
38684;DHT22;24910;53.248;-6.134;2023-04-15T07:03:30;11.70;76.10
38684;DHT22;24910;53.248;-6.134;2023-04-15T07:06:00;11.80;76.00
38684;DHT22;24910;53.248;-6.134;2023-04-15T07:08:34;12.00;75.70
38684;DHT22;24910;53.248;-6.134;2023-04-15T07:11:06;12.10;75.40
38684;DHT22;24910;53.248;-6.134;2023-04-15T07:13:38;12.20;75.20
38684;DHT22;24910;53.248;-6.134;2023-04-15T07:16:08;12.30;75.00
38684;DHT22;24910;53.248;-6.134;2023-04-15T07:18:39;12.40;74.80
38684;DHT22;24910;53.248;-6.134;2023-04-15T07:21:09;12.40;74.50
38684;DHT22;24910;53.248;-6.134;2023-04-15T07:23:41;12.50;74.30
38684;DHT22;24910;53.248;-6.134;2023-04-15T07:26:11;12.60;74.20
38684;DHT22;24910;53.248;-6.134;2023-04-15T07:28:43;12.70;74.00
38684;DHT22;24910;53.248;-6.134;2023-04-15T07:31:14;12.80;73.70
38684;DHT22;24910;53.248;-6.134;2023-04-15T07:33:45;12.90;73.60
38684;DHT22;24910;53.248;-6.134;2023-04-15T07:36:16;13.00;73.40
38684;DHT22;24910;53.248;-6.134;2023-04-15T07:38:46;13.10;73.20
38684;DHT22;24910;53.248;-6.134;2023-04-15T07:41:17;13.20;72.90
38684;DHT22;24910;53.248;-6.134;2023-04-15T07:43:49;13.30;72.60
38684;DHT22;24910;53.248;-6.134;2023-04-15T07:46:20;13.40;72.50
38684;DHT22;24910;53.248;-6.134;2023-04-15T07:48:52;13.40;72.00
38684;DHT22;24910;53.248;-6.134;2023-04-15T07:51:22;13.50;71.90
38684;DHT22;24910;53.248;-6.134;2023-04-15T07:53:52;13.50;71.70
38684;DHT22;24910;53.248;-6.134;2023-04-15T07:56:23;13.60;71.50
38684;DHT22;24910;53.248;-6.134;2023-04-15T07:58:55;13.70;71.30
38684;DHT22;24910;53.248;-6.134;2023-04-15T08:01:26;13.60;70.80
38684;DHT22;24910;53.248;-6.134;2023-04-15T08:03:56;13.60;71.00
38684;DHT22;24910;53.248;-6.134;2023-04-15T08:06:27;13.70;70.80
38684;DHT22;24910;53.248;-6.134;2023-04-15T08:08:58;13.70;70.60
38684;DHT22;24910;53.248;-6.134;2023-04-15T08:11:29;13.80;70.40
38684;DHT22;24910;53.248;-6.134;2023-04-15T08:14:01;13.80;70.10
38684;DHT22;24910;53.248;-6.134;2023-04-15T08:16:31;13.70;69.70
38684;DHT22;24910;53.248;-6.134;2023-04-15T08:19:01;13.70;69.60
38684;DHT22;24910;53.248;-6.134;2023-04-15T08:21:32;13.70;69.80
38684;DHT22;24910;53.248;-6.134;2023-04-15T08:24:03;13.70;69.70
38684;DHT22;24910;53.248;-6.134;2023-04-15T08:26:33;13.70;69.70
38684;DHT22;24910;53.248;-6.134;2023-04-15T08:29:05;13.90;69.50
38684;DHT22;24910;53.248;-6.134;2023-04-15T08:31:36;14.00;69.30
38684;DHT22;24910;53.248;-6.134;2023-04-15T08:34:06;14.00;69.00
38684;DHT22;24910;53.248;-6.134;2023-04-15T08:36:37;14.10;68.70
38684;DHT22;24910;53.248;-6.134;2023-04-15T08:39:07;14.20;68.50
38684;DHT22;24910;53.248;-6.134;2023-04-15T08:41:40;14.30;68.20
38684;DHT22;24910;53.248;-6.134;2023-04-15T08:44:17;14.30;67.70
38684;DHT22;24910;53.248;-6.134;2023-04-15T08:46:48;14.40;67.50
38684;DHT22;24910;53.248;-6.134;2023-04-15T08:49:20;14.50;67.30
38684;DHT22;24910;53.248;-6.134;2023-04-15T08:51:51;14.60;66.90
38684;DHT22;24910;53.248;-6.134;2023-04-15T08:54:21;14.70;66.60
38684;DHT22;24910;53.248;-6.134;2023-04-15T08:56:52;14.70;66.00
38684;DHT22;24910;53.248;-6.134;2023-04-15T08:59:24;14.80;65.90
38684;DHT22;24910;53.248;-6.134;2023-04-15T09:01:56;14.90;65.60
38684;DHT22;24910;53.248;-6.134;2023-04-15T09:04:27;15.00;65.30
38684;DHT22;24910;53.248;-6.134;2023-04-15T09:06:58;15.00;64.90
38684;DHT22;24910;53.248;-6.134;2023-04-15T09:09:28;15.10;64.40
38684;DHT22;24910;53.248;-6.134;2023-04-15T09:12:00;15.20;64.00
38684;DHT22;24910;53.248;-6.134;2023-04-15T09:14:32;15.20;63.80
38684;DHT22;24910;53.248;-6.134;2023-04-15T09:17:03;15.20;63.50
38684;DHT22;24910;53.248;-6.134;2023-04-15T09:19:35;15.20;63.20
38684;DHT22;24910;53.248;-6.134;2023-04-15T09:22:05;15.10;63.10
38684;DHT22;24910;53.248;-6.134;2023-04-15T09:24:38;15.10;63.20
38684;DHT22;24910;53.248;-6.134;2023-04-15T09:27:10;15.00;63.30
38684;DHT22;24910;53.248;-6.134;2023-04-15T09:29:41;15.00;63.40
38684;DHT22;24910;53.248;-6.134;2023-04-15T09:32:13;15.00;63.60
38684;DHT22;24910;53.248;-6.134;2023-04-15T09:34:43;15.20;64.00
38684;DHT22;24910;53.248;-6.134;2023-04-15T09:37:13;15.20;63.80
38684;DHT22;24910;53.248;-6.134;2023-04-15T09:40:00;15.20;63.90
38684;DHT22;24910;53.248;-6.134;2023-04-15T09:42:30;15.20;63.40
38684;DHT22;24910;53.248;-6.134;2023-04-15T09:45:10;15.20;63.30
38684;DHT22;24910;53.248;-6.134;2023-04-15T09:47:40;15.20;63.40
38684;DHT22;24910;53.248;-6.134;2023-04-15T09:50:11;15.20;63.50
38684;DHT22;24910;53.248;-6.134;2023-04-15T09:52:43;15.30;63.30
38684;DHT22;24910;53.248;-6.134;2023-04-15T09:55:14;15.30;63.00
38684;DHT22;24910;53.248;-6.134;2023-04-15T09:57:45;15.30;62.50
38684;DHT22;24910;53.248;-6.134;2023-04-15T10:00:16;15.20;62.90
38684;DHT22;24910;53.248;-6.134;2023-04-15T10:02:47;15.20;64.00
38684;DHT22;24910;53.248;-6.134;2023-04-15T10:05:18;15.20;63.30
38684;DHT22;24910;53.248;-6.134;2023-04-15T10:07:49;15.20;63.70
38684;DHT22;24910;53.248;-6.134;2023-04-15T10:10:19;15.10;63.70
38684;DHT22;24910;53.248;-6.134;2023-04-15T10:12:51;14.90;63.70
38684;DHT22;24910;53.248;-6.134;2023-04-15T10:15:25;14.80;64.10
38684;DHT22;24910;53.248;-6.134;2023-04-15T10:17:58;14.80;64.40
38684;DHT22;24910;53.248;-6.134;2023-04-15T10:20:29;14.90;64.60
38684;DHT22;24910;53.248;-6.134;2023-04-15T10:23:01;14.90;64.70
38684;DHT22;24910;53.248;-6.134;2023-04-15T10:25:32;14.90;64.60
38684;DHT22;24910;53.248;-6.134;2023-04-15T10:28:04;14.80;64.70
38684;DHT22;24910;53.248;-6.134;2023-04-15T10:30:37;14.90;64.70
38684;DHT22;24910;53.248;-6.134;2023-04-15T10:33:08;14.80;64.70
38684;DHT22;24910;53.248;-6.134;2023-04-15T10:35:39;14.70;65.00
38684;DHT22;24910;53.248;-6.134;2023-04-15T10:41:12;14.40;65.60
38684;DHT22;24910;53.248;-6.134;2023-04-15T10:43:48;14.30;66.10
38684;DHT22;24910;53.248;-6.134;2023-04-15T10:46:21;14.40;66.30
38684;DHT22;24910;53.248;-6.134;2023-04-15T10:48:53;14.40;66.40
38684;DHT22;24910;53.248;-6.134;2023-04-15T10:51:30;14.40;66.60
38684;DHT22;24910;53.248;-6.134;2023-04-15T10:54:01;14.30;66.80
38684;DHT22;24910;53.248;-6.134;2023-04-15T10:56:32;14.40;67.40
38684;DHT22;24910;53.248;-6.134;2023-04-15T10:59:04;14.40;66.90
38684;DHT22;24910;53.248;-6.134;2023-04-15T11:01:53;14.30;66.80
38684;DHT22;24910;53.248;-6.134;2023-04-15T11:04:53;14.20;67.30
38684;DHT22;24910;53.248;-6.134;2023-04-15T11:07:38;14.30;67.60
38684;DHT22;24910;53.248;-6.134;2023-04-15T11:13:27;14.30;67.60
38684;DHT22;24910;53.248;-6.134;2023-04-15T11:16:00;14.40;67.50
38684;DHT22;24910;53.248;-6.134;2023-04-15T11:18:33;14.50;67.40
38684;DHT22;24910;53.248;-6.134;2023-04-15T11:21:06;14.50;67.30
38684;DHT22;24910;53.248;-6.134;2023-04-15T11:23:38;14.50;67.30
38684;DHT22;24910;53.248;-6.134;2023-04-15T11:26:12;14.50;67.60
38684;DHT22;24910;53.248;-6.134;2023-04-15T11:28:44;14.50;67.70
38684;DHT22;24910;53.248;-6.134;2023-04-15T11:31:16;14.60;67.90
38684;DHT22;24910;53.248;-6.134;2023-04-15T11:33:55;14.70;67.80
38684;DHT22;24910;53.248;-6.134;2023-04-15T11:36:28;14.60;67.60
38684;DHT22;24910;53.248;-6.134;2023-04-15T11:39:00;14.50;67.90
38684;DHT22;24910;53.248;-6.134;2023-04-15T11:41:30;14.50;68.30
38684;DHT22;24910;53.248;-6.134;2023-04-15T11:44:00;14.50;68.40
38684;DHT22;24910;53.248;-6.134;2023-04-15T11:46:31;14.50;68.30
38684;DHT22;24910;53.248;-6.134;2023-04-15T11:49:03;14.50;68.30
38684;DHT22;24910;53.248;-6.134;2023-04-15T11:51:34;14.40;68.30
38684;DHT22;24910;53.248;-6.134;2023-04-15T11:54:03;14.40;68.90
38684;DHT22;24910;53.248;-6.134;2023-04-15T11:56:33;14.40;69.10
38684;DHT22;24910;53.248;-6.134;2023-04-15T11:59:02;14.30;69.20
38684;DHT22;24910;53.248;-6.134;2023-04-15T12:01:32;14.40;69.50
38684;DHT22;24910;53.248;-6.134;2023-04-15T12:04:10;14.40;69.50
38684;DHT22;24910;53.248;-6.134;2023-04-15T12:06:40;14.30;69.60
38684;DHT22;24910;53.248;-6.134;2023-04-15T12:09:11;14.30;69.80
38684;DHT22;24910;53.248;-6.134;2023-04-15T12:11:45;14.20;69.90
38684;DHT22;24910;53.248;-6.134;2023-04-15T12:14:22;14.20;70.20
38684;DHT22;24910;53.248;-6.134;2023-04-15T12:16:53;14.10;70.40
38684;DHT22;24910;53.248;-6.134;2023-04-15T12:19:27;14.10;70.70
38684;DHT22;24910;53.248;-6.134;2023-04-15T12:21:58;14.30;70.80
38684;DHT22;24910;53.248;-6.134;2023-04-15T12:24:30;14.20;70.70
38684;DHT22;24910;53.248;-6.134;2023-04-15T12:27:04;14.20;70.80
38684;DHT22;24910;53.248;-6.134;2023-04-15T12:29:34;14.10;71.00
38684;DHT22;24910;53.248;-6.134;2023-04-15T12:32:05;14.10;71.00
38684;DHT22;24910;53.248;-6.134;2023-04-15T12:34:40;14.10;71.00
38684;DHT22;24910;53.248;-6.134;2023-04-15T12:37:12;14.00;70.90
38684;DHT22;24910;53.248;-6.134;2023-04-15T12:39:42;13.90;71.50
38684;DHT22;24910;53.248;-6.134;2023-04-15T12:42:12;13.90;71.80
38684;DHT22;24910;53.248;-6.134;2023-04-15T12:44:41;13.90;71.80
38684;DHT22;24910;53.248;-6.134;2023-04-15T12:47:12;14.00;71.80
38684;DHT22;24910;53.248;-6.134;2023-04-15T12:49:43;14.10;71.50
38684;DHT22;24910;53.248;-6.134;2023-04-15T12:52:12;14.20;71.00
38684;DHT22;24910;53.248;-6.134;2023-04-15T12:54:41;14.20;70.60
38684;DHT22;24910;53.248;-6.134;2023-04-15T12:57:10;14.30;70.20
38684;DHT22;24910;53.248;-6.134;2023-04-15T12:59:39;14.30;69.50
38684;DHT22;24910;53.248;-6.134;2023-04-15T13:02:09;14.30;69.10
38684;DHT22;24910;53.248;-6.134;2023-04-15T13:04:38;14.30;69.00
38684;DHT22;24910;53.248;-6.134;2023-04-15T13:07:09;14.30;68.70
38684;DHT22;24910;53.248;-6.134;2023-04-15T13:09:40;14.30;68.60
38684;DHT22;24910;53.248;-6.134;2023-04-15T13:12:09;14.30;68.40
38684;DHT22;24910;53.248;-6.134;2023-04-15T13:14:40;14.40;68.30
38684;DHT22;24910;53.248;-6.134;2023-04-15T13:17:09;14.30;68.30
38684;DHT22;24910;53.248;-6.134;2023-04-15T13:19:38;14.30;68.30
38684;DHT22;24910;53.248;-6.134;2023-04-15T13:22:09;14.20;68.30
38684;DHT22;24910;53.248;-6.134;2023-04-15T13:24:39;14.20;68.60
38684;DHT22;24910;53.248;-6.134;2023-04-15T13:27:08;14.30;68.60
38684;DHT22;24910;53.248;-6.134;2023-04-15T13:29:37;14.30;68.40
38684;DHT22;24910;53.248;-6.134;2023-04-15T13:32:07;14.40;68.20
38684;DHT22;24910;53.248;-6.134;2023-04-15T13:34:36;14.40;68.20
38684;DHT22;24910;53.248;-6.134;2023-04-15T13:37:06;14.40;68.30
38684;DHT22;24910;53.248;-6.134;2023-04-15T13:39:36;14.30;68.30
38684;DHT22;24910;53.248;-6.134;2023-04-15T13:42:06;14.30;68.50
38684;DHT22;24910;53.248;-6.134;2023-04-15T13:44:35;14.30;68.50
38684;DHT22;24910;53.248;-6.134;2023-04-15T13:47:04;14.30;68.60
38684;DHT22;24910;53.248;-6.134;2023-04-15T13:49:33;14.30;68.90
38684;DHT22;24910;53.248;-6.134;2023-04-15T13:52:03;14.20;69.10
38684;DHT22;24910;53.248;-6.134;2023-04-15T13:54:32;14.20;69.40
38684;DHT22;24910;53.248;-6.134;2023-04-15T13:57:06;14.20;69.40
38684;DHT22;24910;53.248;-6.134;2023-04-15T13:59:35;14.30;69.30
38684;DHT22;24910;53.248;-6.134;2023-04-15T14:02:04;14.30;69.30
38684;DHT22;24910;53.248;-6.134;2023-04-15T14:04:33;14.30;69.30
38684;DHT22;24910;53.248;-6.134;2023-04-15T14:07:02;14.20;69.50
38684;DHT22;24910;53.248;-6.134;2023-04-15T14:09:32;14.30;69.60
38684;DHT22;24910;53.248;-6.134;2023-04-15T14:12:02;14.30;70.50
38684;DHT22;24910;53.248;-6.134;2023-04-15T14:14:33;14.20;69.50
38684;DHT22;24910;53.248;-6.134;2023-04-15T14:17:02;14.20;69.60
38684;DHT22;24910;53.248;-6.134;2023-04-15T14:19:32;14.20;69.80
38684;DHT22;24910;53.248;-6.134;2023-04-15T14:22:01;14.20;70.00
38684;DHT22;24910;53.248;-6.134;2023-04-15T14:24:31;14.20;70.00
38684;DHT22;24910;53.248;-6.134;2023-04-15T14:27:00;14.20;70.00
38684;DHT22;24910;53.248;-6.134;2023-04-15T14:29:29;14.20;70.10
38684;DHT22;24910;53.248;-6.134;2023-04-15T14:32:00;14.20;70.10
38684;DHT22;24910;53.248;-6.134;2023-04-15T14:34:39;14.20;70.10
38684;DHT22;24910;53.248;-6.134;2023-04-15T14:37:08;14.20;70.20
38684;DHT22;24910;53.248;-6.134;2023-04-15T14:39:37;14.10;70.20
38684;DHT22;24910;53.248;-6.134;2023-04-15T14:42:06;14.10;70.30
38684;DHT22;24910;53.248;-6.134;2023-04-15T14:44:35;14.10;70.30
38684;DHT22;24910;53.248;-6.134;2023-04-15T14:47:07;14.10;70.30
38684;DHT22;24910;53.248;-6.134;2023-04-15T14:49:36;14.10;70.10
38684;DHT22;24910;53.248;-6.134;2023-04-15T14:52:05;14.20;70.20
38684;DHT22;24910;53.248;-6.134;2023-04-15T14:54:34;14.30;70.30
38684;DHT22;24910;53.248;-6.134;2023-04-15T14:57:03;14.20;70.20
38684;DHT22;24910;53.248;-6.134;2023-04-15T14:59:32;14.30;70.50
38684;DHT22;24910;53.248;-6.134;2023-04-15T15:02:01;14.30;70.60
38684;DHT22;24910;53.248;-6.134;2023-04-15T15:04:33;14.30;70.60
38684;DHT22;24910;53.248;-6.134;2023-04-15T15:07:03;14.40;70.70
38684;DHT22;24910;53.248;-6.134;2023-04-15T15:09:32;14.30;70.70
38684;DHT22;24910;53.248;-6.134;2023-04-15T15:12:01;14.30;70.80
38684;DHT22;24910;53.248;-6.134;2023-04-15T15:14:30;14.30;71.80
38684;DHT22;24910;53.248;-6.134;2023-04-15T15:16:59;14.30;71.10
38684;DHT22;24910;53.248;-6.134;2023-04-15T15:19:29;14.30;70.90
38684;DHT22;24910;53.248;-6.134;2023-04-15T15:21:59;14.30;70.90
38684;DHT22;24910;53.248;-6.134;2023-04-15T15:24:28;14.30;70.90
38684;DHT22;24910;53.248;-6.134;2023-04-15T15:26:57;14.30;70.90
38684;DHT22;24910;53.248;-6.134;2023-04-15T15:29:27;14.30;70.80
38684;DHT22;24910;53.248;-6.134;2023-04-15T15:31:56;14.30;70.90
38684;DHT22;24910;53.248;-6.134;2023-04-15T15:34:25;14.40;71.00
38684;DHT22;24910;53.248;-6.134;2023-04-15T15:36:54;14.40;71.00
38684;DHT22;24910;53.248;-6.134;2023-04-15T15:39:25;14.40;71.10
38684;DHT22;24910;53.248;-6.134;2023-04-15T15:41:57;14.50;71.20
38684;DHT22;24910;53.248;-6.134;2023-04-15T15:44:26;14.50;71.20
38684;DHT22;24910;53.248;-6.134;2023-04-15T15:46:55;14.50;71.20
38684;DHT22;24910;53.248;-6.134;2023-04-15T15:49:25;14.50;71.20
38684;DHT22;24910;53.248;-6.134;2023-04-15T15:51:56;14.50;71.20